sensor_id;sensor_type;location;lat;lon;timestamp;pressure;altitude;pressure_sealevel;temperature;humidity
6514;BME280;3290;47.716;9.070;2022-09-09T00:00:55;96706.94;;;16.50;100.00
6514;BME280;3290;47.716;9.070;2022-09-09T00:03:33;96713.75;;;16.37;100.00
6514;BME280;3290;47.716;9.070;2022-09-09T00:11:55;96703.66;;;16.34;100.00
6514;BME280;3290;47.716;9.070;2022-09-09T00:14:37;96697.59;;;16.33;100.00
6514;BME280;3290;47.716;9.070;2022-09-09T00:17:11;96695.44;;;15.99;100.00
6514;BME280;3290;47.716;9.070;2022-09-09T00:20:02;96697.25;;;15.94;100.00
6514;BME280;3290;47.716;9.070;2022-09-09T00:22:36;96695.59;;;15.83;100.00
6514;BME280;3290;47.716;9.070;2022-09-09T00:25:12;96702.78;;;15.87;100.00
6514;BME280;3290;47.716;9.070;2022-09-09T00:27:46;96711.84;;;15.96;100.00
6514;BME280;3290;47.716;9.070;2022-09-09T00:30:17;96699.66;;;15.95;100.00
6514;BME280;3290;47.716;9.070;2022-09-09T00:32:46;96708.06;;;15.87;100.00
6514;BME280;3290;47.716;9.070;2022-09-09T00:35:29;96699.13;;;15.93;100.00
6514;BME280;3290;47.716;9.070;2022-09-09T00:38:00;96705.13;;;15.89;100.00
6514;BME280;3290;47.716;9.070;2022-09-09T00:40:32;96701.91;;;16.13;100.00
6514;BME280;3290;47.716;9.070;2022-09-09T00:43:27;96706.09;;;16.09;100.00
6514;BME280;3290;47.716;9.070;2022-09-09T00:46:20;96698.19;;;15.78;100.00
6514;BME280;3290;47.716;9.070;2022-09-09T00:51:47;96691.84;;;15.48;100.00
6514;BME280;3290;47.716;9.070;2022-09-09T00:59:59;96684.97;;;15.78;100.00
6514;BME280;3290;47.716;9.070;2022-09-09T01:10:53;96688.25;;;16.21;100.00
6514;BME280;3290;47.716;9.070;2022-09-09T01:13:25;96684.38;;;16.02;100.00
6514;BME280;3290;47.716;9.070;2022-09-09T01:15:52;96686.34;;;15.85;100.00
6514;BME280;3290;47.716;9.070;2022-09-09T01:18:23;96685.75;;;15.73;100.00
6514;BME280;3290;47.716;9.070;2022-09-09T01:24:13;96682.47;;;15.62;100.00
6514;BME280;3290;47.716;9.070;2022-09-09T01:26:42;96681.69;;;15.61;100.00
6514;BME280;3290;47.716;9.070;2022-09-09T01:29:10;96678.84;;;15.72;100.00
6514;BME280;3290;47.716;9.070;2022-09-09T01:31:41;96676.41;;;15.97;100.00
6514;BME280;3290;47.716;9.070;2022-09-09T01:34:10;96674.75;;;15.86;100.00
6514;BME280;3290;47.716;9.070;2022-09-09T01:36:47;96669.84;;;16.00;100.00
6514;BME280;3290;47.716;9.070;2022-09-09T01:39:16;96674.13;;;16.10;100.00
6514;BME280;3290;47.716;9.070;2022-09-09T01:41:42;96682.34;;;16.14;100.00
6514;BME280;3290;47.716;9.070;2022-09-09T01:44:08;96679.63;;;16.04;100.00
6514;BME280;3290;47.716;9.070;2022-09-09T01:46:35;96682.28;;;16.04;100.00
6514;BME280;3290;47.716;9.070;2022-09-09T01:49:02;96684.50;;;16.17;100.00
6514;BME280;3290;47.716;9.070;2022-09-09T01:51:29;96687.59;;;16.09;100.00
6514;BME280;3290;47.716;9.070;2022-09-09T01:53:55;96686.66;;;16.20;100.00
6514;BME280;3290;47.716;9.070;2022-09-09T01:56:40;96689.22;;;16.15;100.00
6514;BME280;3290;47.716;9.070;2022-09-09T02:01:56;96693.59;;;16.31;100.00
6514;BME280;3290;47.716;9.070;2022-09-09T02:06:58;96698.75;;;16.57;100.00
6514;BME280;3290;47.716;9.070;2022-09-09T02:09:25;96692.75;;;16.66;100.00
6514;BME280;3290;47.716;9.070;2022-09-09T02:11:57;96705.16;;;16.61;100.00
6514;BME280;3290;47.716;9.070;2022-09-09T02:14:30;96691.94;;;16.66;100.00
6514;BME280;3290;47.716;9.070;2022-09-09T02:17:04;96685.56;;;16.62;100.00
6514;BME280;3290;47.716;9.070;2022-09-09T02:19:36;96700.16;;;16.69;100.00
6514;BME280;3290;47.716;9.070;2022-09-09T02:22:03;96704.34;;;16.60;100.00
6514;BME280;3290;47.716;9.070;2022-09-09T02:24:32;96704.91;;;16.67;100.00
6514;BME280;3290;47.716;9.070;2022-09-09T02:27:01;96704.59;;;16.54;100.00
6514;BME280;3290;47.716;9.070;2022-09-09T02:29:49;96702.50;;;16.66;100.00
6514;BME280;3290;47.716;9.070;2022-09-09T02:32:19;96707.66;;;16.82;100.00
6514;BME280;3290;47.716;9.070;2022-09-09T02:34:48;96704.19;;;16.82;100.00
6514;BME280;3290;47.716;9.070;2022-09-09T02:37:17;96712.69;;;16.83;100.00
6514;BME280;3290;47.716;9.070;2022-09-09T02:39:43;96716.69;;;16.91;100.00
6514;BME280;3290;47.716;9.070;2022-09-09T02:42:09;96719.84;;;16.93;100.00
6514;BME280;3290;47.716;9.070;2022-09-09T02:44:35;96711.59;;;16.75;100.00
6514;BME280;3290;47.716;9.070;2022-09-09T02:52:55;96730.31;;;16.68;100.00
6514;BME280;3290;47.716;9.070;2022-09-09T02:55:34;96727.97;;;16.72;100.00
6514;BME280;3290;47.716;9.070;2022-09-09T02:58:04;96731.88;;;16.59;100.00
6514;BME280;3290;47.716;9.070;2022-09-09T03:00:32;96730.75;;;16.50;100.00
6514;BME280;3290;47.716;9.070;2022-09-09T03:02:58;96721.25;;;16.54;100.00
6514;BME280;3290;47.716;9.070;2022-09-09T03:05:24;96720.09;;;16.41;100.00
6514;BME280;3290;47.716;9.070;2022-09-09T03:07:50;96722.28;;;16.48;100.00
6514;BME280;3290;47.716;9.070;2022-09-09T03:10:16;96730.00;;;16.60;100.00
6514;BME280;3290;47.716;9.070;2022-09-09T03:12:42;96737.09;;;16.49;100.00
6514;BME280;3290;47.716;9.070;2022-09-09T03:15:08;96737.69;;;16.61;100.00
6514;BME280;3290;47.716;9.070;2022-09-09T03:17:34;96735.09;;;16.66;100.00
6514;BME280;3290;47.716;9.070;2022-09-09T03:20:02;96737.41;;;16.58;100.00
6514;BME280;3290;47.716;9.070;2022-09-09T03:22:27;96730.28;;;16.63;100.00
6514;BME280;3290;47.716;9.070;2022-09-09T03:24:52;96745.22;;;16.43;100.00
6514;BME280;3290;47.716;9.070;2022-09-09T03:27:18;96754.56;;;16.50;100.00
6514;BME280;3290;47.716;9.070;2022-09-09T03:29:45;96750.88;;;16.56;100.00
6514;BME280;3290;47.716;9.070;2022-09-09T03:32:10;96746.84;;;16.44;100.00
6514;BME280;3290;47.716;9.070;2022-09-09T03:34:37;96751.63;;;16.47;100.00
6514;BME280;3290;47.716;9.070;2022-09-09T03:37:05;96749.78;;;16.47;100.00
6514;BME280;3290;47.716;9.070;2022-09-09T03:39:31;96751.41;;;16.58;100.00
6514;BME280;3290;47.716;9.070;2022-09-09T03:41:56;96757.50;;;16.54;100.00
6514;BME280;3290;47.716;9.070;2022-09-09T03:44:22;96750.47;;;16.33;100.00
6514;BME280;3290;47.716;9.070;2022-09-09T03:46:47;96751.47;;;16.63;100.00
6514;BME280;3290;47.716;9.070;2022-09-09T03:49:13;96747.69;;;16.54;100.00
6514;BME280;3290;47.716;9.070;2022-09-09T03:51:38;96748.78;;;16.58;100.00
6514;BME280;3290;47.716;9.070;2022-09-09T03:54:05;96745.03;;;16.49;100.00
6514;BME280;3290;47.716;9.070;2022-09-09T03:56:33;96745.81;;;16.50;100.00
6514;BME280;3290;47.716;9.070;2022-09-09T03:58:59;96740.28;;;16.51;100.00
6514;BME280;3290;47.716;9.070;2022-09-09T04:01:24;96741.78;;;16.42;100.00
6514;BME280;3290;47.716;9.070;2022-09-09T04:03:50;96744.44;;;16.42;100.00
6514;BME280;3290;47.716;9.070;2022-09-09T04:06:15;96735.19;;;16.40;100.00
6514;BME280;3290;47.716;9.070;2022-09-09T04:08:41;96734.91;;;16.37;100.00
6514;BME280;3290;47.716;9.070;2022-09-09T04:11:07;96739.44;;;16.46;100.00
6514;BME280;3290;47.716;9.070;2022-09-09T04:13:34;96736.53;;;16.47;100.00
6514;BME280;3290;47.716;9.070;2022-09-09T04:16:01;96732.63;;;16.55;100.00
6514;BME280;3290;47.716;9.070;2022-09-09T04:18:28;96731.59;;;16.56;100.00
6514;BME280;3290;47.716;9.070;2022-09-09T04:20:54;96735.81;;;16.57;100.00
6514;BME280;3290;47.716;9.070;2022-09-09T04:23:22;96733.44;;;16.60;100.00
6514;BME280;3290;47.716;9.070;2022-09-09T04:25:53;96741.63;;;16.59;100.00
6514;BME280;3290;47.716;9.070;2022-09-09T04:28:20;96737.66;;;16.56;100.00
6514;BME280;3290;47.716;9.070;2022-09-09T04:30:46;96739.84;;;16.69;100.00
6514;BME280;3290;47.716;9.070;2022-09-09T04:33:12;96740.69;;;16.80;100.00
6514;BME280;3290;47.716;9.070;2022-09-09T04:35:38;96740.22;;;16.87;100.00
6514;BME280;3290;47.716;9.070;2022-09-09T04:38:04;96735.47;;;16.89;100.00
6514;BME280;3290;47.716;9.070;2022-09-09T04:40:32;96735.66;;;17.29;100.00
6514;BME280;3290;47.716;9.070;2022-09-09T04:42:59;96733.78;;;17.24;100.00
6514;BME280;3290;47.716;9.070;2022-09-09T04:45:24;96741.56;;;17.56;100.00
6514;BME280;3290;47.716;9.070;2022-09-09T04:47:52;96748.44;;;17.62;100.00
6514;BME280;3290;47.716;9.070;2022-09-09T04:50:18;96747.44;;;17.82;100.00
6514;BME280;3290;47.716;9.070;2022-09-09T04:52:44;96742.63;;;17.60;100.00
6514;BME280;3290;47.716;9.070;2022-09-09T04:55:09;96739.94;;;17.55;100.00
6514;BME280;3290;47.716;9.070;2022-09-09T04:57:34;96745.06;;;17.91;100.00
6514;BME280;3290;47.716;9.070;2022-09-09T05:00:00;96734.97;;;17.78;100.00
6514;BME280;3290;47.716;9.070;2022-09-09T05:02:27;96729.66;;;17.88;100.00
6514;BME280;3290;47.716;9.070;2022-09-09T05:04:52;96725.81;;;17.20;100.00
6514;BME280;3290;47.716;9.070;2022-09-09T05:07:18;96730.53;;;17.13;100.00
6514;BME280;3290;47.716;9.070;2022-09-09T05:09:44;96737.94;;;17.11;100.00
6514;BME280;3290;47.716;9.070;2022-09-09T05:12:10;96725.75;;;17.10;100.00
6514;BME280;3290;47.716;9.070;2022-09-09T05:14:36;96723.47;;;16.72;100.00
6514;BME280;3290;47.716;9.070;2022-09-09T05:17:02;96737.75;;;16.71;100.00
6514;BME280;3290;47.716;9.070;2022-09-09T05:19:28;96741.97;;;16.72;100.00
6514;BME280;3290;47.716;9.070;2022-09-09T05:21:54;96739.50;;;17.02;100.00
6514;BME280;3290;47.716;9.070;2022-09-09T05:24:19;96742.09;;;16.97;100.00
6514;BME280;3290;47.716;9.070;2022-09-09T05:26:44;96749.59;;;17.10;100.00
6514;BME280;3290;47.716;9.070;2022-09-09T05:29:10;96746.47;;;17.18;100.00
6514;BME280;3290;47.716;9.070;2022-09-09T05:31:35;96741.78;;;17.39;100.00
6514;BME280;3290;47.716;9.070;2022-09-09T05:34:01;96750.00;;;17.38;100.00
6514;BME280;3290;47.716;9.070;2022-09-09T05:36:27;96753.94;;;17.25;100.00
6514;BME280;3290;47.716;9.070;2022-09-09T05:38:52;96750.72;;;17.23;100.00
6514;BME280;3290;47.716;9.070;2022-09-09T05:41:19;96750.59;;;17.04;100.00
6514;BME280;3290;47.716;9.070;2022-09-09T05:43:45;96752.09;;;16.80;100.00
6514;BME280;3290;47.716;9.070;2022-09-09T05:46:20;96760.06;;;16.90;100.00
6514;BME280;3290;47.716;9.070;2022-09-09T05:48:47;96763.41;;;17.22;100.00
6514;BME280;3290;47.716;9.070;2022-09-09T05:51:18;96757.66;;;17.34;100.00
6514;BME280;3290;47.716;9.070;2022-09-09T05:53:44;96760.88;;;17.41;100.00
6514;BME280;3290;47.716;9.070;2022-09-09T05:56:13;96766.16;;;17.41;100.00
6514;BME280;3290;47.716;9.070;2022-09-09T05:58:45;96766.75;;;17.63;100.00
6514;BME280;3290;47.716;9.070;2022-09-09T06:01:27;96769.16;;;17.84;100.00
6514;BME280;3290;47.716;9.070;2022-09-09T06:03:54;96768.38;;;17.99;100.00
6514;BME280;3290;47.716;9.070;2022-09-09T06:06:24;96760.44;;;17.89;100.00
6514;BME280;3290;47.716;9.070;2022-09-09T06:08:52;96767.06;;;17.91;100.00
6514;BME280;3290;47.716;9.070;2022-09-09T06:11:23;96770.22;;;17.78;100.00
6514;BME280;3290;47.716;9.070;2022-09-09T06:13:49;96769.41;;;17.68;100.00
6514;BME280;3290;47.716;9.070;2022-09-09T06:16:21;96773.66;;;17.79;100.00
6514;BME280;3290;47.716;9.070;2022-09-09T06:18:50;96773.63;;;17.69;100.00
6514;BME280;3290;47.716;9.070;2022-09-09T06:21:21;96769.47;;;17.98;100.00
6514;BME280;3290;47.716;9.070;2022-09-09T06:23:48;96775.31;;;18.14;100.00
6514;BME280;3290;47.716;9.070;2022-09-09T06:26:27;96776.34;;;18.08;100.00
6514;BME280;3290;47.716;9.070;2022-09-09T06:28:55;96780.59;;;18.00;100.00
6514;BME280;3290;47.716;9.070;2022-09-09T06:31:22;96768.44;;;18.18;100.00
6514;BME280;3290;47.716;9.070;2022-09-09T06:33:53;96775.88;;;18.36;100.00
6514;BME280;3290;47.716;9.070;2022-09-09T06:36:26;96775.59;;;18.47;100.00
6514;BME280;3290;47.716;9.070;2022-09-09T06:38:52;96775.56;;;18.72;100.00
6514;BME280;3290;47.716;9.070;2022-09-09T06:41:20;96778.44;;;18.85;100.00
6514;BME280;3290;47.716;9.070;2022-09-09T06:43:46;96781.16;;;18.61;100.00
6514;BME280;3290;47.716;9.070;2022-09-09T06:46:17;96775.84;;;18.51;100.00
6514;BME280;3290;47.716;9.070;2022-09-09T06:48:44;96769.41;;;18.91;100.00
6514;BME280;3290;47.716;9.070;2022-09-09T06:51:12;96783.81;;;18.61;100.00
6514;BME280;3290;47.716;9.070;2022-09-09T06:53:39;96770.28;;;18.57;100.00
6514;BME280;3290;47.716;9.070;2022-09-09T06:58:40;96776.91;;;18.65;100.00
6514;BME280;3290;47.716;9.070;2022-09-09T07:01:14;96775.84;;;18.56;100.00
6514;BME280;3290;47.716;9.070;2022-09-09T07:03:40;96783.25;;;18.74;100.00
6514;BME280;3290;47.716;9.070;2022-09-09T07:06:09;96774.19;;;18.94;100.00
6514;BME280;3290;47.716;9.070;2022-09-09T07:08:39;96775.25;;;19.03;100.00
6514;BME280;3290;47.716;9.070;2022-09-09T07:11:06;96791.47;;;18.87;100.00
6514;BME280;3290;47.716;9.070;2022-09-09T07:13:33;96783.22;;;19.03;100.00
6514;BME280;3290;47.716;9.070;2022-09-09T07:16:09;96778.50;;;18.61;100.00
6514;BME280;3290;47.716;9.070;2022-09-09T07:18:35;96781.84;;;19.16;100.00
6514;BME280;3290;47.716;9.070;2022-09-09T07:21:03;96783.09;;;19.43;100.00
6514;BME280;3290;47.716;9.070;2022-09-09T07:23:29;96775.72;;;19.25;99.75
6514;BME280;3290;47.716;9.070;2022-09-09T07:25:55;96769.47;;;19.54;99.99
6514;BME280;3290;47.716;9.070;2022-09-09T07:28:21;96762.78;;;19.62;99.45
6514;BME280;3290;47.716;9.070;2022-09-09T07:30:55;96765.16;;;20.11;94.87
6514;BME280;3290;47.716;9.070;2022-09-09T07:33:21;96764.84;;;19.74;97.34
6514;BME280;3290;47.716;9.070;2022-09-09T07:35:46;96767.22;;;19.76;98.90
6514;BME280;3290;47.716;9.070;2022-09-09T07:38:12;96762.09;;;19.89;96.66
6514;BME280;3290;47.716;9.070;2022-09-09T07:40:37;96763.53;;;20.48;93.30
6514;BME280;3290;47.716;9.070;2022-09-09T07:43:04;96767.06;;;20.39;92.55
6514;BME280;3290;47.716;9.070;2022-09-09T07:45:30;96773.19;;;20.72;93.62
6514;BME280;3290;47.716;9.070;2022-09-09T07:47:57;96773.69;;;20.74;92.45
6514;BME280;3290;47.716;9.070;2022-09-09T07:50:23;96774.78;;;20.68;91.42
6514;BME280;3290;47.716;9.070;2022-09-09T07:52:50;96772.66;;;20.98;90.74
6514;BME280;3290;47.716;9.070;2022-09-09T07:55:15;96767.44;;;21.35;88.47
6514;BME280;3290;47.716;9.070;2022-09-09T07:57:41;96776.09;;;21.45;87.15
6514;BME280;3290;47.716;9.070;2022-09-09T08:00:07;96775.59;;;20.97;86.54
6514;BME280;3290;47.716;9.070;2022-09-09T08:02:32;96772.41;;;20.95;86.49
6514;BME280;3290;47.716;9.070;2022-09-09T08:04:58;96766.06;;;21.14;86.23
6514;BME280;3290;47.716;9.070;2022-09-09T08:07:23;96776.25;;;21.95;85.13
6514;BME280;3290;47.716;9.070;2022-09-09T08:09:49;96775.09;;;21.83;84.51
6514;BME280;3290;47.716;9.070;2022-09-09T08:12:15;96790.25;;;22.55;81.64
6514;BME280;3290;47.716;9.070;2022-09-09T08:14:40;96785.31;;;22.49;81.07
6514;BME280;3290;47.716;9.070;2022-09-09T08:17:05;96791.78;;;22.30;83.88
6514;BME280;3290;47.716;9.070;2022-09-09T08:19:31;96793.22;;;22.22;84.91
6514;BME280;3290;47.716;9.070;2022-09-09T08:22:01;96793.31;;;21.94;85.88
6514;BME280;3290;47.716;9.070;2022-09-09T08:24:27;96794.13;;;21.95;85.33
6514;BME280;3290;47.716;9.070;2022-09-09T08:26:52;96799.06;;;21.18;86.48
6514;BME280;3290;47.716;9.070;2022-09-09T08:29:19;96796.31;;;21.51;84.92
6514;BME280;3290;47.716;9.070;2022-09-09T08:31:50;96795.00;;;22.09;84.17
6514;BME280;3290;47.716;9.070;2022-09-09T08:34:16;96793.22;;;23.17;78.55
6514;BME280;3290;47.716;9.070;2022-09-09T08:36:46;96800.16;;;23.32;79.06
6514;BME280;3290;47.716;9.070;2022-09-09T08:39:14;96804.78;;;22.81;77.33
6514;BME280;3290;47.716;9.070;2022-09-09T08:47:11;96800.22;;;22.82;78.21
6514;BME280;3290;47.716;9.070;2022-09-09T08:52:24;96780.34;;;24.43;71.77
6514;BME280;3290;47.716;9.070;2022-09-09T08:54:50;96795.78;;;23.49;76.76
6514;BME280;3290;47.716;9.070;2022-09-09T08:57:27;96795.66;;;22.69;76.95
6514;BME280;3290;47.716;9.070;2022-09-09T08:59:55;96795.00;;;22.09;81.51
6514;BME280;3290;47.716;9.070;2022-09-09T09:02:51;96793.81;;;22.19;83.41
6514;BME280;3290;47.716;9.070;2022-09-09T09:10:49;96787.97;;;22.17;84.06
6514;BME280;3290;47.716;9.070;2022-09-09T09:13:44;96785.13;;;22.27;81.57
6514;BME280;3290;47.716;9.070;2022-09-09T09:16:32;96783.75;;;21.93;80.58
6514;BME280;3290;47.716;9.070;2022-09-09T09:18:58;96802.25;;;21.43;82.11
6514;BME280;3290;47.716;9.070;2022-09-09T09:21:53;96796.69;;;21.17;81.99
6514;BME280;3290;47.716;9.070;2022-09-09T09:27:18;96803.25;;;22.30;77.80
6514;BME280;3290;47.716;9.070;2022-09-09T09:29:48;96800.50;;;22.98;73.35
6514;BME280;3290;47.716;9.070;2022-09-09T09:32:18;96796.19;;;23.82;69.41
6514;BME280;3290;47.716;9.070;2022-09-09T09:34:51;96798.88;;;24.17;66.06
6514;BME280;3290;47.716;9.070;2022-09-09T09:37:27;96797.34;;;23.90;67.88
6514;BME280;3290;47.716;9.070;2022-09-09T09:39:54;96785.53;;;25.13;62.28
6514;BME280;3290;47.716;9.070;2022-09-09T09:42:21;96786.44;;;25.00;59.74
6514;BME280;3290;47.716;9.070;2022-09-09T09:44:46;96787.91;;;25.06;60.09
6514;BME280;3290;47.716;9.070;2022-09-09T09:47:21;96786.16;;;25.10;57.22
6514;BME280;3290;47.716;9.070;2022-09-09T09:49:54;96785.47;;;24.96;59.27
6514;BME280;3290;47.716;9.070;2022-09-09T09:52:26;96793.94;;;24.11;64.76
6514;BME280;3290;47.716;9.070;2022-09-09T09:54:53;96794.03;;;23.31;68.51
6514;BME280;3290;47.716;9.070;2022-09-09T09:57:27;96793.59;;;23.11;70.24
6514;BME280;3290;47.716;9.070;2022-09-09T10:00:13;96789.03;;;22.98;72.09
6514;BME280;3290;47.716;9.070;2022-09-09T10:02:41;96793.78;;;23.14;72.15
6514;BME280;3290;47.716;9.070;2022-09-09T10:07:43;96790.34;;;23.80;69.32
6514;BME280;3290;47.716;9.070;2022-09-09T10:10:20;96779.91;;;24.93;63.38
6514;BME280;3290;47.716;9.070;2022-09-09T10:13:04;96784.56;;;25.09;59.00
6514;BME280;3290;47.716;9.070;2022-09-09T10:32:52;96775.25;;;24.33;57.40
6514;BME280;3290;47.716;9.070;2022-09-09T10:35:17;96778.56;;;23.68;63.38
6514;BME280;3290;47.716;9.070;2022-09-09T10:49:19;96757.81;;;24.22;58.42
6514;BME280;3290;47.716;9.070;2022-09-09T10:56:54;96770.72;;;23.18;62.61
6514;BME280;3290;47.716;9.070;2022-09-09T10:59:25;96776.75;;;22.97;61.20
6514;BME280;3290;47.716;9.070;2022-09-09T11:07:12;96792.38;;;21.67;67.18
6514;BME280;3290;47.716;9.070;2022-09-09T11:09:47;96780.94;;;21.43;71.74
6514;BME280;3290;47.716;9.070;2022-09-09T11:12:19;96771.03;;;21.85;71.89
6514;BME280;3290;47.716;9.070;2022-09-09T11:14:59;96771.13;;;21.80;69.28
6514;BME280;3290;47.716;9.070;2022-09-09T11:17:33;96774.50;;;22.04;66.43
6514;BME280;3290;47.716;9.070;2022-09-09T11:20:02;96784.69;;;21.42;67.56
6514;BME280;3290;47.716;9.070;2022-09-09T11:25:07;96779.09;;;21.62;66.34
6514;BME280;3290;47.716;9.070;2022-09-09T11:33:30;96772.88;;;22.58;63.44
6514;BME280;3290;47.716;9.070;2022-09-09T11:36:02;96772.91;;;23.30;58.89
6514;BME280;3290;47.716;9.070;2022-09-09T11:38:47;96766.66;;;23.34;58.32
6514;BME280;3290;47.716;9.070;2022-09-09T11:41:17;96756.34;;;23.81;57.91
6514;BME280;3290;47.716;9.070;2022-09-09T11:43:49;96752.53;;;23.95;61.33
6514;BME280;3290;47.716;9.070;2022-09-09T11:46:34;96760.94;;;24.59;57.18
6514;BME280;3290;47.716;9.070;2022-09-09T11:49:05;96754.34;;;25.17;54.64
6514;BME280;3290;47.716;9.070;2022-09-09T11:51:32;96754.47;;;24.90;55.22
6514;BME280;3290;47.716;9.070;2022-09-09T11:54:04;96751.63;;;24.35;57.47
6514;BME280;3290;47.716;9.070;2022-09-09T11:56:48;96750.81;;;25.08;54.93
6514;BME280;3290;47.716;9.070;2022-09-09T11:59:32;96758.75;;;24.91;55.10
6514;BME280;3290;47.716;9.070;2022-09-09T12:02:00;96743.94;;;25.24;55.26
6514;BME280;3290;47.716;9.070;2022-09-09T12:04:47;96751.31;;;24.58;55.73
6514;BME280;3290;47.716;9.070;2022-09-09T12:07:41;96750.34;;;24.54;54.65
6514;BME280;3290;47.716;9.070;2022-09-09T12:10:27;96747.38;;;24.86;53.73
6514;BME280;3290;47.716;9.070;2022-09-09T12:12:54;96731.50;;;25.36;50.62
6514;BME280;3290;47.716;9.070;2022-09-09T12:15:21;96739.09;;;25.34;50.18
6514;BME280;3290;47.716;9.070;2022-09-09T12:17:52;96735.50;;;25.55;50.59
6514;BME280;3290;47.716;9.070;2022-09-09T12:20:34;96739.69;;;24.93;50.54
6514;BME280;3290;47.716;9.070;2022-09-09T12:23:22;96739.19;;;25.21;50.06
6514;BME280;3290;47.716;9.070;2022-09-09T12:34:17;96721.47;;;25.03;51.50
6514;BME280;3290;47.716;9.070;2022-09-09T12:36:44;96725.69;;;25.04;51.29
6514;BME280;3290;47.716;9.070;2022-09-09T12:39:19;96719.56;;;24.73;51.88
6514;BME280;3290;47.716;9.070;2022-09-09T12:41:52;96725.25;;;24.80;51.53
6514;BME280;3290;47.716;9.070;2022-09-09T12:44:22;96710.75;;;25.67;49.58
6514;BME280;3290;47.716;9.070;2022-09-09T12:46:48;96716.94;;;25.84;50.21
6514;BME280;3290;47.716;9.070;2022-09-09T12:49:34;96706.34;;;25.71;50.00
6514;BME280;3290;47.716;9.070;2022-09-09T12:52:36;96703.03;;;25.10;52.53
6514;BME280;3290;47.716;9.070;2022-09-09T12:55:05;96704.50;;;24.34;52.28
6514;BME280;3290;47.716;9.070;2022-09-09T12:57:36;96694.06;;;24.84;51.43
6514;BME280;3290;47.716;9.070;2022-09-09T13:00:15;96708.28;;;25.32;51.16
6514;BME280;3290;47.716;9.070;2022-09-09T13:02:55;96695.84;;;25.44;50.30
6514;BME280;3290;47.716;9.070;2022-09-09T13:05:22;96691.75;;;25.46;51.00
6514;BME280;3290;47.716;9.070;2022-09-09T13:07:48;96689.63;;;24.50;51.85
6514;BME280;3290;47.716;9.070;2022-09-09T13:10:20;96684.63;;;25.34;50.62
6514;BME280;3290;47.716;9.070;2022-09-09T13:12:47;96682.44;;;25.52;49.80
6514;BME280;3290;47.716;9.070;2022-09-09T13:15:20;96676.00;;;25.53;49.58
6514;BME280;3290;47.716;9.070;2022-09-09T13:17:59;96668.06;;;24.93;51.84
6514;BME280;3290;47.716;9.070;2022-09-09T13:20:27;96668.59;;;25.92;47.52
6514;BME280;3290;47.716;9.070;2022-09-09T13:22:54;96670.66;;;25.78;49.85
6514;BME280;3290;47.716;9.070;2022-09-09T13:25:25;96666.06;;;25.79;47.92
6514;BME280;3290;47.716;9.070;2022-09-09T13:28:03;96659.63;;;25.08;49.32
6514;BME280;3290;47.716;9.070;2022-09-09T13:30:38;96666.41;;;24.75;50.66
6514;BME280;3290;47.716;9.070;2022-09-09T13:35:47;96649.03;;;25.92;49.58
6514;BME280;3290;47.716;9.070;2022-09-09T13:38:15;96655.34;;;25.96;48.78
6514;BME280;3290;47.716;9.070;2022-09-09T13:40:52;96646.66;;;25.74;49.87
6514;BME280;3290;47.716;9.070;2022-09-09T13:43:21;96653.53;;;25.49;48.49
6514;BME280;3290;47.716;9.070;2022-09-09T13:45:59;96650.25;;;25.52;46.91
6514;BME280;3290;47.716;9.070;2022-09-09T13:48:26;96642.47;;;25.42;47.22
6514;BME280;3290;47.716;9.070;2022-09-09T13:51:00;96636.69;;;25.91;46.43
6514;BME280;3290;47.716;9.070;2022-09-09T13:53:26;96645.38;;;25.88;47.63
6514;BME280;3290;47.716;9.070;2022-09-09T13:55:52;96637.63;;;26.03;46.07
6514;BME280;3290;47.716;9.070;2022-09-09T13:58:18;96632.81;;;25.08;48.64
6514;BME280;3290;47.716;9.070;2022-09-09T14:00:45;96640.47;;;24.93;50.12
6514;BME280;3290;47.716;9.070;2022-09-09T14:03:10;96635.94;;;24.33;50.81
6514;BME280;3290;47.716;9.070;2022-09-09T14:05:36;96639.94;;;24.44;51.57
6514;BME280;3290;47.716;9.070;2022-09-09T14:08:06;96635.50;;;24.69;49.67
6514;BME280;3290;47.716;9.070;2022-09-09T14:10:33;96640.84;;;24.99;48.80
6514;BME280;3290;47.716;9.070;2022-09-09T14:13:01;96630.03;;;25.46;49.18
6514;BME280;3290;47.716;9.070;2022-09-09T14:15:26;96635.84;;;25.32;49.35
6514;BME280;3290;47.716;9.070;2022-09-09T14:17:52;96631.41;;;25.19;49.04
6514;BME280;3290;47.716;9.070;2022-09-09T14:20:17;96628.59;;;25.40;47.51
6514;BME280;3290;47.716;9.070;2022-09-09T14:22:44;96623.44;;;25.61;47.52
6514;BME280;3290;47.716;9.070;2022-09-09T14:25:09;96627.44;;;24.99;48.70
6514;BME280;3290;47.716;9.070;2022-09-09T14:27:36;96627.78;;;25.15;49.42
6514;BME280;3290;47.716;9.070;2022-09-09T14:30:03;96620.41;;;25.29;49.28
6514;BME280;3290;47.716;9.070;2022-09-09T14:32:29;96625.47;;;25.55;48.91
6514;BME280;3290;47.716;9.070;2022-09-09T14:34:55;96624.22;;;25.86;47.84
6514;BME280;3290;47.716;9.070;2022-09-09T14:37:20;96630.03;;;26.14;46.99
6514;BME280;3290;47.716;9.070;2022-09-09T14:39:45;96631.56;;;26.48;45.50
6514;BME280;3290;47.716;9.070;2022-09-09T14:42:12;96627.84;;;26.24;45.71
6514;BME280;3290;47.716;9.070;2022-09-09T14:44:38;96627.19;;;26.02;45.03
6514;BME280;3290;47.716;9.070;2022-09-09T14:47:04;96626.56;;;25.88;45.90
6514;BME280;3290;47.716;9.070;2022-09-09T14:49:30;96622.47;;;25.48;46.25
6514;BME280;3290;47.716;9.070;2022-09-09T14:51:55;96630.00;;;25.30;47.61
6514;BME280;3290;47.716;9.070;2022-09-09T14:54:20;96632.63;;;24.96;48.03
6514;BME280;3290;47.716;9.070;2022-09-09T14:56:48;96631.19;;;24.60;49.12
6514;BME280;3290;47.716;9.070;2022-09-09T14:59:13;96631.25;;;24.38;48.73
6514;BME280;3290;47.716;9.070;2022-09-09T15:01:39;96641.16;;;24.16;50.09
6514;BME280;3290;47.716;9.070;2022-09-09T15:04:05;96644.13;;;24.28;51.23
6514;BME280;3290;47.716;9.070;2022-09-09T15:06:33;96640.81;;;23.87;47.79
6514;BME280;3290;47.716;9.070;2022-09-09T15:08:59;96639.28;;;24.38;49.84
6514;BME280;3290;47.716;9.070;2022-09-09T15:11:30;96637.31;;;24.91;47.50
6514;BME280;3290;47.716;9.070;2022-09-09T15:13:56;96636.78;;;24.80;47.83
6514;BME280;3290;47.716;9.070;2022-09-09T15:16:23;96637.69;;;25.14;47.55
6514;BME280;3290;47.716;9.070;2022-09-09T15:18:51;96635.09;;;25.39;45.95
6514;BME280;3290;47.716;9.070;2022-09-09T15:21:22;96638.41;;;25.45;45.18
6514;BME280;3290;47.716;9.070;2022-09-09T15:23:48;96642.28;;;25.14;46.38
6514;BME280;3290;47.716;9.070;2022-09-09T15:26:14;96639.91;;;25.12;45.93
6514;BME280;3290;47.716;9.070;2022-09-09T15:28:41;96632.16;;;25.11;46.05